Estación Meteorológica Peña el Pijo (Robertgarden) [ 07/24/17 22:44:16 CEST ]

Fecha Hora Presion(HPa) Temp (°C) Humedad % Rocio (°C) Viento ( m/s) Direccion Lluvia 1Hora(mm) Lluvia 24H(mm) LLuvia Total(mm)
2017-Jun-17 01:01:36 1015.800 16.7 61 9.2         1427.09
2017-Jun-17 02:01:39 1015.400 16.1 63 9.1         1427.09
2017-Jun-17 03:01:58 1015.000 14.9 67 8.8         1427.09
2017-Jun-17 04:01:36 1014.600 14.7 66 8.4         1427.09
2017-Jun-17 05:01:38 1014.300 13.9 69 8.3         1427.09
2017-Jun-17 06:01:38 1014.200 12.8 73 8.1         1427.09
2017-Jun-17 07:01:18 1014.200 12.3 76 8.3         1427.09
2017-Jun-17 08:01:25 1014.500 14.9 77 10.9         1427.09
2017-Jun-17 09:01:13 1014.600 21.6 61 13.5         1427.09
2017-Jun-17 10:01:15 1014.300 27.8 44 14.4         1427.09
2017-Jun-17 11:01:50 1013.900 32.6 33 14.2         1427.09
2017-Jun-17 12:01:43 1013.500 35.6 27 13.5         1427.09
2017-Jun-17 13:01:44 1013.000 36.4 24 12.4         1427.09
2017-Jun-17 14:01:32 1012.700 37.9 21 11.7         1427.09
2017-Jun-17 15:01:52 1012.100 36.9 21 10.9 2.4 SSW     1427.09
2017-Jun-17 16:01:46 1011.500 37.1 23 12.3         1427.09
2017-Jun-17 17:01:52 1011.000 33.9 25 10.9         1427.09
2017-Jun-17 18:01:46 1011.600 28.1 33 10.2         1427.09
2017-Jun-17 19:01:47 1010.600 28.6 39 13.3         1427.09
2017-Jun-17 20:01:48 1010.900 28.4 41 13.9         1427.09
2017-Jun-17 21:01:49 1011.100 25.1 51 14.3         1427.09
2017-Jun-17 22:01:44 1011.000 22.5 57 13.5         1427.09
2017-Jun-17 23:01:45 1011.300 20.6 62 13.1         1427.09

Temperatura Máxima:37°    Temperatura Mínima:12°
Presión Máxima:1015.800 Hpa    Presión Mínima:1010.600 Hpa


Volver